Time;durP1;ratioP1;P1;durP2;ratioP2;P2;SDS_P1;SDS_P2;PMS_P1;PMS_P2;Temp;Humidity;BMP_temperature;BMP_pressure;BME280_temperature;BME280_humidity;BME280_pressure;Samples;Min_cycle;Max_cycle;Signal;HPM_P1;HPM_P2
2022/05/16 00:02:15;;;;;;;;;;;;;;;;;;5003331;28;19917;-66
2022/05/16 00:04:41;;;;;;;;;;;;;;;;;;4995776;28;19913;-66
2022/05/16 00:07:07;;;;;;;;;;;;;;;;;;4996960;28;20456;-66
2022/05/16 00:09:33;;;;;;;;;;;;;;;;;;4995909;28;19968;-66
2022/05/16 00:11:59;;;;;;;;;;;;;;;;;;4995517;28;19917;-66
2022/05/16 00:14:25;;;;;;;;;;;;;;;;;;4997567;28;20086;-67
2022/05/16 00:16:51;;;;;;;;;;;;;;;;;;4995302;28;20376;-67
2022/05/16 00:19:17;;;;;;;;;;;;;;;;;;4997674;28;20274;-66
2022/05/16 00:21:43;;;;;;;;;;;;;;;;;;4999717;28;19952;-66
2022/05/16 00:24:09;;;;;;;;;;;;;;;;;;4995409;28;20454;-68
2022/05/16 00:26:35;;;;;;;;;;;;;;;;;;4996219;28;19917;-65
2022/05/16 00:29:01;;;;;;;;;;;;;;;;;;4990624;28;20000;-66
2022/05/16 00:31:27;;;;;;;;;;;;;;;;;;4997866;28;19941;-67
2022/05/16 00:33:53;;;;;;;;;;;;;;;;;;4994600;28;19917;-65
2022/05/16 00:36:19;;;;;;;;;;;;;;;;;;5000823;28;19928;-66
2022/05/16 00:38:45;;;;;;;;;;;;;;;;;;4995503;28;20298;-65
2022/05/16 00:41:11;;;;;;;;;;;;;;;;;;4996635;28;19917;-66
2022/05/16 00:43:37;;;;;;;;;;;;;;;;;;4994431;28;20235;-66
2022/05/16 00:46:03;;;;;;;;;;;;;;;;;;4992227;28;19971;-66
2022/05/16 00:48:29;;;;;;;;;;;;;;;;;;4999887;28;19937;-66
2022/05/16 00:50:55;;;;;;;;;;;;;;;;;;4994682;28;19925;-66
2022/05/16 00:53:21;;;;;;;;;;;;;;;;;;4997691;28;19924;-66
2022/05/16 00:55:47;;;;;;;;;;;;;;;;;;4996586;28;20339;-67
2022/05/16 00:58:12;;;;;;;;;;;;;;;;;;4993900;28;19980;-67
2022/05/16 01:00:39;;;;;;;;;;;;;;;;;;4997830;28;19952;-66
2022/05/16 01:05:50;;;;;;;;;;;;;;;;;;4995818;28;20370;-67
2022/05/16 01:08:16;;;;;;;;;;;;;;;;;;4982217;28;19960;-66
2022/05/16 01:10:42;;;;;;;;;;;;;;;;;;4998763;28;20027;-66
2022/05/16 01:13:08;;;;;;;;;;;;;;;;;;4999172;28;19964;-66
2022/05/16 01:15:34;;;;;;;;;;;;;;;;;;4999711;28;19917;-66
2022/05/16 01:18:00;;;;;;;;;;;;;;;;;;4996440;28;20550;-66
2022/05/16 01:20:26;;;;;;;;;;;;;;;;;;5001792;28;19928;-66
2022/05/16 01:22:52;;;;;;;;;;;;;;;;;;4998307;28;19917;-66
2022/05/16 01:25:18;;;;;;;;;;;;;;;;;;5002605;28;19948;-65
2022/05/16 01:27:44;;;;;;;;;;;;;;;;;;4998953;28;20850;-65
2022/05/16 01:30:10;;;;;;;;;;;;;;;;;;4999519;28;19917;-67
2022/05/16 01:32:36;;;;;;;;;;;;;;;;;;4998144;28;19921;-67
2022/05/16 01:35:01;;;;;;;;;;;;;;;;;;4996635;28;20016;-67
2022/05/16 01:38:18;;;;;;;;;;;;;;;;;;4997863;28;19998;-66
2022/05/16 01:40:13;;;;;;;;;;;;;;;;;;5001526;28;19917;-66
2022/05/16 01:42:39;;;;;;;;;;;;;;;;;;4999132;28;19940;-65
2022/05/16 01:45:05;;;;;;;;;;;;;;;;;;5000216;28;20022;-66
2022/05/16 01:47:33;;;;;;;;;;;;;;;;;;4997583;28;20004;-66
2022/05/16 01:49:59;;;;;;;;;;;;;;;;;;4998383;28;19930;-66
2022/05/16 01:52:24;;;;;;;;;;;;;;;;;;5001794;28;20438;-66
2022/05/16 01:54:50;;;;;;;;;;;;;;;;;;4995131;28;20507;-66
2022/05/16 01:57:17;;;;;;;;;;;;;;;;;;5000261;28;19957;-66
2022/05/16 01:59:43;;;;;;;;;;;;;;;;;;5000672;28;19921;-66
2022/05/16 02:02:09;;;;;;;;;;;;;;;;;;5000224;28;20305;-65
2022/05/16 02:04:35;;;;;;;;;;;;;;;;;;4983106;28;20394;-65
2022/05/16 02:07:00;;;;;;;;;;;;;;;;;;4997299;28;19975;-65
2022/05/16 02:09:26;;;;;;;;;;;;;;;;;;5000657;28;19960;-65
2022/05/16 02:11:55;;;;;;;;;;;;;;;;;;4992802;28;20166;-66
2022/05/16 02:14:22;;;;;;;;;;;;;;;;;;5000806;28;21175;-65
2022/05/16 02:16:49;;;;;;;;;;;;;;;;;;4999847;28;19929;-65
2022/05/16 02:19:15;;;;;;;;;;;;;;;;;;4979064;28;20268;-65
2022/05/16 02:24:38;;;;;;;;;;;;;;;;;;5001367;28;19924;-65
2022/05/16 02:27:04;;;;;;;;;;;;;;;;;;4996029;28;20059;-65
2022/05/16 02:29:30;;;;;;;;;;;;;;;;;;4978485;28;19947;-65
2022/05/16 02:31:56;;;;;;;;;;;;;;;;;;4997885;28;20653;-66
2022/05/16 02:34:22;;;;;;;;;;;;;;;;;;5002444;28;20228;-67
2022/05/16 02:36:48;;;;;;;;;;;;;;;;;;4997413;28;19917;-65
2022/05/16 02:39:14;;;;;;;;;;;;;;;;;;4982184;28;19979;-65
2022/05/16 02:41:40;;;;;;;;;;;;;;;;;;5002744;28;19917;-65
2022/05/16 02:44:06;;;;;;;;;;;;;;;;;;4998953;28;20476;-65
2022/05/16 02:46:32;;;;;;;;;;;;;;;;;;4999486;28;20019;-65
2022/05/16 02:48:58;;;;;;;;;;;;;;;;;;4997421;28;19995;-65
2022/05/16 02:51:24;;;;;;;;;;;;;;;;;;5000243;28;19923;-65
2022/05/16 02:53:50;;;;;;;;;;;;;;;;;;4994074;28;19917;-65
2022/05/16 02:56:16;;;;;;;;;;;;;;;;;;4993037;28;19922;-65
2022/05/16 02:58:43;;;;;;;;;;;;;;;;;;4995022;28;20548;-65
2022/05/16 03:01:09;;;;;;;;;;;;;;;;;;4995722;28;19925;-65
2022/05/16 03:03:35;;;;;;;;;;;;;;;;;;4997898;28;19917;-65
2022/05/16 03:06:01;;;;;;;;;;;;;;;;;;4997608;28;20559;-65
2022/05/16 03:08:27;;;;;;;;;;;;;;;;;;4999721;28;19986;-65
2022/05/16 03:10:53;;;;;;;;;;;;;;;;;;4999596;28;19921;-68
2022/05/16 03:13:19;;;;;;;;;;;;;;;;;;5002897;28;19999;-67
2022/05/16 03:15:45;;;;;;;;;;;;;;;;;;5004187;28;19924;-67
2022/05/16 03:18:11;;;;;;;;;;;;;;;;;;4995933;28;19929;-66
2022/05/16 03:20:37;;;;;;;;;;;;;;;;;;5001830;28;19921;-66
2022/05/16 03:23:03;;;;;;;;;;;;;;;;;;4993628;28;19921;-66
2022/05/16 03:25:28;;;;;;;;;;;;;;;;;;5001354;28;19936;-65
2022/05/16 03:27:54;;;;;;;;;;;;;;;;;;4997755;28;20682;-65
2022/05/16 03:30:20;;;;;;;;;;;;;;;;;;4999658;28;19921;-65
2022/05/16 03:32:46;;;;;;;;;;;;;;;;;;5000788;28;19928;-66
2022/05/16 03:35:12;;;;;;;;;;;;;;;;;;4999756;28;20618;-66
2022/05/16 03:37:38;;;;;;;;;;;;;;;;;;4996801;28;20244;-65
2022/05/16 03:42:49;;;;;;;;;;;;;;;;;;4997746;28;20420;-66
2022/05/16 03:45:15;;;;;;;;;;;;;;;;;;4994227;28;19917;-65
2022/05/16 03:47:41;;;;;;;;;;;;;;;;;;4990251;28;19925;-66
2022/05/16 03:50:07;;;;;;;;;;;;;;;;;;4976414;28;19926;-65
2022/05/16 03:52:33;;;;;;;;;;;;;;;;;;4979575;28;20360;-65
2022/05/16 03:54:59;;;;;;;;;;;;;;;;;;4990646;28;20560;-65
2022/05/16 03:57:25;;;;;;;;;;;;;;;;;;4997905;28;20348;-68
2022/05/16 03:59:51;;;;;;;;;;;;;;;;;;4989051;28;19917;-65
2022/05/16 04:02:16;;;;;;;;;;;;;;;;;;4982610;28;20283;-65
2022/05/16 04:04:43;;;;;;;;;;;;;;;;;;4986045;28;19922;-66
2022/05/16 04:07:09;;;;;;;;;;;;;;;;;;4979326;28;19964;-66
2022/05/16 04:09:35;;;;;;;;;;;;;;;;;;4982160;28;19921;-66
2022/05/16 04:12:01;;;;;;;;;;;;;;;;;;4977925;28;19918;-66
2022/05/16 04:14:27;;;;;;;;;;;;;;;;;;4997103;28;20056;-66
2022/05/16 04:16:53;;;;;;;;;;;;;;;;;;4970742;28;19925;-66
2022/05/16 04:19:19;;;;;;;;;;;;;;;;;;4994125;28;19929;-67
2022/05/16 04:21:45;;;;;;;;;;;;;;;;;;4981107;28;20462;-65
2022/05/16 04:24:11;;;;;;;;;;;;;;;;;;5002439;28;20425;-66
2022/05/16 04:26:40;;;;;;;;;;;;;;;;;;4986353;28;19921;-65
2022/05/16 04:29:06;;;;;;;;;;;;;;;;;;4995392;28;19913;-65
2022/05/16 04:31:32;;;;;;;;;;;;;;;;;;4982340;28;19975;-65
2022/05/16 04:33:58;;;;;;;;;;;;;;;;;;4973678;28;20579;-65
2022/05/16 04:36:24;;;;;;;;;;;;;;;;;;4967214;28;19960;-65
2022/05/16 04:38:50;;;;;;;;;;;;;;;;;;4974793;28;19984;-65
2022/05/16 04:44:01;;;;;;;;;;;;;;;;;;4978367;28;20628;-65
2022/05/16 04:46:30;;;;;;;;;;;;;;;;;;4985429;28;20355;-67
2022/05/16 04:48:56;;;;;;;;;;;;;;;;;;4994606;28;19929;-66
2022/05/16 04:51:22;;;;;;;;;;;;;;;;;;5001396;28;19924;-65
2022/05/16 04:53:48;;;;;;;;;;;;;;;;;;5000849;28;20629;-66
2022/05/16 04:56:14;;;;;;;;;;;;;;;;;;4995882;28;19964;-65
2022/05/16 04:58:40;;;;;;;;;;;;;;;;;;5000066;28;19921;-65
2022/05/16 05:01:06;;;;;;;;;;;;;;;;;;4994597;28;19921;-65
2022/05/16 05:03:32;;;;;;;;;;;;;;;;;;4999995;28;20228;-65
2022/05/16 05:05:58;;;;;;;;;;;;;;;;;;4993940;28;19994;-65
2022/05/16 05:08:24;;;;;;;;;;;;;;;;;;5005028;28;19917;-65
2022/05/16 05:16:19;;;;;;;;;;;;;;;;;;5007673;28;20347;-65
2022/05/16 05:18:45;;;;;;;;;;;;;;;;;;5002031;28;20016;-64
2022/05/16 05:21:11;;;;;;;;;;;;;;;;;;5001252;28;19916;-66
2022/05/16 05:23:38;;;;;;;;;;;;;;;;;;5004749;28;20338;-67
2022/05/16 05:26:04;;;;;;;;;;;;;;;;;;4999495;28;20350;-67
2022/05/16 05:28:30;;;;;;;;;;;;;;;;;;5006533;28;19948;-66
2022/05/16 05:30:59;;;;;;;;;;;;;;;;;;5001587;28;19917;-67
2022/05/16 05:33:25;;;;;;;;;;;;;;;;;;5008488;28;19928;-67
2022/05/16 05:35:51;;;;;;;;;;;;;;;;;;4999634;28;19918;-68
2022/05/16 05:38:18;;;;;;;;;;;;;;;;;;5003124;28;20007;-68
2022/05/16 05:40:49;;;;;;;;;;;;;;;;;;5007604;28;19917;-68
2022/05/16 05:43:15;;;;;;;;;;;;;;;;;;4999904;28;19924;-68
2022/05/16 05:45:41;;;;;;;;;;;;;;;;;;5007519;28;19917;-67
2022/05/16 05:48:07;;;;;;;;;;;;;;;;;;4997127;28;20373;-69
2022/05/16 05:50:33;;;;;;;;;;;;;;;;;;5000495;28;20221;-69
2022/05/16 05:52:59;;;;;;;;;;;;;;;;;;4993979;28;20032;-69
2022/05/16 05:55:25;;;;;;;;;;;;;;;;;;4997761;28;20394;-69
2022/05/16 05:57:51;;;;;;;;;;;;;;;;;;4992374;28;19979;-69
2022/05/16 06:00:19;;;;;;;;;;;;;;;;;;5002150;28;19924;-68
2022/05/16 06:02:45;;;;;;;;;;;;;;;;;;5001191;28;19921;-68
2022/05/16 06:05:14;;;;;;;;;;;;;;;;;;4995647;28;20381;-67
2022/05/16 06:07:40;;;;;;;;;;;;;;;;;;4996504;28;19928;-67
2022/05/16 06:10:06;;;;;;;;;;;;;;;;;;4993219;28;19917;-68
2022/05/16 06:12:32;;;;;;;;;;;;;;;;;;4992454;28;19917;-68
2022/05/16 06:14:58;;;;;;;;;;;;;;;;;;4993624;28;19917;-68
2022/05/16 06:17:24;;;;;;;;;;;;;;;;;;4997055;28;20363;-70
2022/05/16 06:19:50;;;;;;;;;;;;;;;;;;4995980;28;20418;-70
2022/05/16 06:22:16;;;;;;;;;;;;;;;;;;4985219;28;19928;-68
2022/05/16 06:27:29;;;;;;;;;;;;;;;;;;4995915;28;19975;-68
2022/05/16 06:29:55;;;;;;;;;;;;;;;;;;5000646;28;19917;-67
2022/05/16 06:32:21;;;;;;;;;;;;;;;;;;5004660;28;20090;-67
2022/05/16 06:34:47;;;;;;;;;;;;;;;;;;5001887;28;20366;-67
2022/05/16 06:37:14;;;;;;;;;;;;;;;;;;4995436;28;19921;-67
2022/05/16 06:39:40;;;;;;;;;;;;;;;;;;4997145;28;19932;-68
2022/05/16 06:42:06;;;;;;;;;;;;;;;;;;4998181;28;19917;-68
2022/05/16 06:44:32;;;;;;;;;;;;;;;;;;5000308;28;19917;-67
2022/05/16 06:46:58;;;;;;;;;;;;;;;;;;4996089;28;19916;-67
2022/05/16 06:49:24;;;;;;;;;;;;;;;;;;4997906;28;19975;-68
2022/05/16 06:51:50;;;;;;;;;;;;;;;;;;4998889;28;19923;-67
2022/05/16 06:54:16;;;;;;;;;;;;;;;;;;4998933;28;19943;-67
2022/05/16 06:56:42;;;;;;;;;;;;;;;;;;4997583;28;19917;-67
2022/05/16 06:59:08;;;;;;;;;;;;;;;;;;4994836;28;21985;-67
2022/05/16 07:01:34;;;;;;;;;;;;;;;;;;5000040;28;19924;-67
2022/05/16 07:04:00;;;;;;;;;;;;;;;;;;4996676;28;20255;-68
2022/05/16 07:06:26;;;;;;;;;;;;;;;;;;4997858;28;19917;-68
2022/05/16 07:08:53;;;;;;;;;;;;;;;;;;4993627;28;19917;-68
2022/05/16 07:11:19;;;;;;;;;;;;;;;;;;5000679;28;20360;-68
2022/05/16 07:13:45;;;;;;;;;;;;;;;;;;4999124;28;19924;-67
2022/05/16 07:16:11;;;;;;;;;;;;;;;;;;4997333;28;19917;-67
2022/05/16 07:18:37;;;;;;;;;;;;;;;;;;4993796;28;20338;-67
2022/05/16 07:21:04;;;;;;;;;;;;;;;;;;4996900;28;19987;-69
2022/05/16 07:23:30;;;;;;;;;;;;;;;;;;4998197;28;19935;-68
2022/05/16 07:28:41;;;;;;;;;;;;;;;;;;4997681;28;19928;-67
2022/05/16 07:31:07;;;;;;;;;;;;;;;;;;4998630;28;20242;-68
2022/05/16 07:33:34;;;;;;;;;;;;;;;;;;5002099;28;20323;-68
2022/05/16 07:36:00;;;;;;;;;;;;;;;;;;4996129;28;20360;-68
2022/05/16 07:38:26;;;;;;;;;;;;;;;;;;4999685;28;19921;-68
2022/05/16 07:40:52;;;;;;;;;;;;;;;;;;4997403;28;19917;-68
2022/05/16 07:43:18;;;;;;;;;;;;;;;;;;5002646;28;20361;-69
2022/05/16 07:45:44;;;;;;;;;;;;;;;;;;4982243;28;20006;-68
2022/05/16 07:48:12;;;;;;;;;;;;;;;;;;4994757;28;20515;-70
2022/05/16 07:50:38;;;;;;;;;;;;;;;;;;5003227;28;19971;-67
2022/05/16 07:53:05;;;;;;;;;;;;;;;;;;4997860;28;19917;-67
2022/05/16 07:55:31;;;;;;;;;;;;;;;;;;5002147;28;19921;-68
2022/05/16 07:57:57;;;;;;;;;;;;;;;;;;4999111;28;20011;-68
2022/05/16 08:00:23;;;;;;;;;;;;;;;;;;4996542;28;20012;-68
2022/05/16 08:02:49;;;;;;;;;;;;;;;;;;4994115;28;19925;-67
2022/05/16 08:05:15;;;;;;;;;;;;;;;;;;4998457;28;19921;-68
2022/05/16 08:10:29;;;;;;;;;;;;;;;;;;4997268;28;19924;-67
2022/05/16 08:12:55;;;;;;;;;;;;;;;;;;4991939;28;20105;-68
2022/05/16 08:15:21;;;;;;;;;;;;;;;;;;4977486;28;20600;-68
2022/05/16 08:17:47;;;;;;;;;;;;;;;;;;4995347;28;19921;-67
2022/05/16 08:20:12;;;;;;;;;;;;;;;;;;4994771;28;20691;-67
2022/05/16 08:22:38;;;;;;;;;;;;;;;;;;4998230;28;19913;-67
2022/05/16 08:25:04;;;;;;;;;;;;;;;;;;4997198;28;19917;-67
2022/05/16 08:27:30;;;;;;;;;;;;;;;;;;4996458;28;20128;-69
2022/05/16 08:29:56;;;;;;;;;;;;;;;;;;4995863;28;20417;-69
2022/05/16 08:32:25;;;;;;;;;;;;;;;;;;4983321;28;19980;-69
2022/05/16 08:34:51;;;;;;;;;;;;;;;;;;4994564;28;19925;-69
2022/05/16 08:40:03;;;;;;;;;;;;;;;;;;4995592;28;19932;-67
2022/05/16 08:42:29;;;;;;;;;;;;;;;;;;4992853;28;19917;-67
2022/05/16 08:44:56;;;;;;;;;;;;;;;;;;4991137;28;20558;-69
2022/05/16 08:47:21;;;;;;;;;;;;;;;;;;4997333;28;19921;-69
2022/05/16 08:49:47;;;;;;;;;;;;;;;;;;4999882;28;19925;-69
2022/05/16 08:52:13;;;;;;;;;;;;;;;;;;4998417;28;19964;-67
2022/05/16 08:54:42;;;;;;;;;;;;;;;;;;4993995;28;20378;-67
2022/05/16 08:57:08;;;;;;;;;;;;;;;;;;4994314;28;19967;-69
2022/05/16 08:59:34;;;;;;;;;;;;;;;;;;4996902;28;20854;-69
2022/05/16 09:02:00;;;;;;;;;;;;;;;;;;4992704;28;19917;-67
2022/05/16 09:04:26;;;;;;;;;;;;;;;;;;4996573;28;19924;-67
2022/05/16 09:06:52;;;;;;;;;;;;;;;;;;4996665;28;20492;-67
2022/05/16 09:09:18;;;;;;;;;;;;;;;;;;4981458;28;20008;-67
2022/05/16 09:11:45;;;;;;;;;;;;;;;;;;4995890;28;19953;-70
2022/05/16 09:14:11;;;;;;;;;;;;;;;;;;4993658;28;19930;-67
2022/05/16 09:16:37;;;;;;;;;;;;;;;;;;5000728;28;19925;-67
2022/05/16 09:19:04;;;;;;;;;;;;;;;;;;4998675;28;19979;-68
2022/05/16 09:21:30;;;;;;;;;;;;;;;;;;4999517;28;20039;-67
2022/05/16 09:23:57;;;;;;;;;;;;;;;;;;4994456;28;20381;-67
2022/05/16 09:26:23;;;;;;;;;;;;;;;;;;4998787;28;19944;-67
2022/05/16 09:28:49;;;;;;;;;;;;;;;;;;4997695;28;20228;-67
2022/05/16 09:31:15;;;;;;;;;;;;;;;;;;5004085;28;20040;-67
2022/05/16 09:33:41;;;;;;;;;;;;;;;;;;5000755;28;19917;-67
2022/05/16 09:36:07;;;;;;;;;;;;;;;;;;5001717;28;20101;-68
2022/05/16 09:38:33;;;;;;;;;;;;;;;;;;5000181;28;19928;-67
2022/05/16 09:41:02;;;;;;;;;;;;;;;;;;5000419;28;20329;-67
2022/05/16 09:43:28;;;;;;;;;;;;;;;;;;4998846;28;20402;-67
2022/05/16 09:45:54;;;;;;;;;;;;;;;;;;4996655;28;19917;-67
2022/05/16 09:48:20;;;;;;;;;;;;;;;;;;4999223;28;20024;-67
2022/05/16 09:50:46;;;;;;;;;;;;;;;;;;5002145;28;19928;-67
2022/05/16 09:53:14;;;;;;;;;;;;;;;;;;4996258;28;19917;-67
2022/05/16 09:55:40;;;;;;;;;;;;;;;;;;5001988;28;20374;-67
2022/05/16 09:58:06;;;;;;;;;;;;;;;;;;4997607;28;20381;-67
2022/05/16 10:00:32;;;;;;;;;;;;;;;;;;5003246;28;20028;-67
2022/05/16 10:02:58;;;;;;;;;;;;;;;;;;5001464;28;19936;-67
2022/05/16 10:05:24;;;;;;;;;;;;;;;;;;5004926;28;20469;-70
2022/05/16 10:07:50;;;;;;;;;;;;;;;;;;5002643;28;20394;-69
2022/05/16 10:10:16;;;;;;;;;;;;;;;;;;4985644;28;19963;-68
2022/05/16 10:12:43;;;;;;;;;;;;;;;;;;5003779;28;20463;-68
2022/05/16 10:15:09;;;;;;;;;;;;;;;;;;4998896;28;20478;-68
2022/05/16 10:17:34;;;;;;;;;;;;;;;;;;5000232;28;19959;-68
2022/05/16 10:20:01;;;;;;;;;;;;;;;;;;4998382;28;20343;-68
2022/05/16 10:22:27;;;;;;;;;;;;;;;;;;5003871;28;20669;-68
2022/05/16 10:24:53;;;;;;;;;;;;;;;;;;5001414;28;19939;-68
2022/05/16 10:27:19;;;;;;;;;;;;;;;;;;5000700;28;19921;-69
2022/05/16 10:29:45;;;;;;;;;;;;;;;;;;5002512;28;20282;-69
2022/05/16 10:34:56;;;;;;;;;;;;;;;;;;4997758;28;20327;-68
2022/05/16 10:37:22;;;;;;;;;;;;;;;;;;4997835;28;19929;-68
2022/05/16 10:39:48;;;;;;;;;;;;;;;;;;4997764;28;20410;-68
2022/05/16 10:42:14;;;;;;;;;;;;;;;;;;4997581;28;19925;-68
2022/05/16 10:44:40;;;;;;;;;;;;;;;;;;5000235;28;19925;-68
2022/05/16 10:47:06;;;;;;;;;;;;;;;;;;4990306;28;19917;-68
2022/05/16 10:49:33;;;;;;;;;;;;;;;;;;4988704;28;20017;-68
2022/05/16 10:51:58;;;;;;;;;;;;;;;;;;4986040;28;20751;-67
2022/05/16 10:54:24;;;;;;;;;;;;;;;;;;4972832;28;19917;-67
2022/05/16 10:56:50;;;;;;;;;;;;;;;;;;4973578;28;20552;-67
2022/05/16 10:59:16;;;;;;;;;;;;;;;;;;4989480;28;19991;-70
2022/05/16 11:01:42;;;;;;;;;;;;;;;;;;4978293;28;20288;-67
2022/05/16 11:04:08;;;;;;;;;;;;;;;;;;4970986;28;22190;-66
2022/05/16 11:06:35;;;;;;;;;;;;;;;;;;4970603;28;19996;-68
2022/05/16 11:09:00;;;;;;;;;;;;;;;;;;4982870;28;19928;-68
2022/05/16 11:11:27;;;;;;;;;;;;;;;;;;4976117;28;21107;-65
2022/05/16 11:13:53;;;;;;;;;;;;;;;;;;4976343;28;19917;-66
2022/05/16 11:16:19;;;;;;;;;;;;;;;;;;4978511;28;20733;-66
2022/05/16 11:18:45;;;;;;;;;;;;;;;;;;4969706;28;20391;-66
2022/05/16 11:21:11;;;;;;;;;;;;;;;;;;4965461;28;19921;-66
2022/05/16 11:23:37;;;;;;;;;;;;;;;;;;4975461;28;20276;-66
2022/05/16 11:26:03;;;;;;;;;;;;;;;;;;4969843;28;19929;-66
2022/05/16 11:28:29;;;;;;;;;;;;;;;;;;4973813;28;19961;-66
2022/05/16 11:30:55;;;;;;;;;;;;;;;;;;4983569;28;20053;-67
2022/05/16 11:33:21;;;;;;;;;;;;;;;;;;4987285;28;20155;-67
2022/05/16 11:35:47;;;;;;;;;;;;;;;;;;4970195;28;20080;-69
2022/05/16 11:38:13;;;;;;;;;;;;;;;;;;4968399;28;19928;-67
2022/05/16 11:40:40;;;;;;;;;;;;;;;;;;4972189;28;19924;-67
2022/05/16 11:43:06;;;;;;;;;;;;;;;;;;4965021;28;19924;-67
2022/05/16 11:45:32;;;;;;;;;;;;;;;;;;4967461;28;19917;-67
2022/05/16 11:47:58;;;;;;;;;;;;;;;;;;4973579;28;19944;-67
2022/05/16 11:50:24;;;;;;;;;;;;;;;;;;4989237;28;20472;-67
2022/05/16 11:52:49;;;;;;;;;;;;;;;;;;4991621;28;19920;-67
2022/05/16 12:00:45;;;;;;;;;;;;;;;;;;4991795;28;19924;-67
2022/05/16 12:03:12;;;;;;;;;;;;;;;;;;4987231;28;19917;-67
2022/05/16 12:05:38;;;;;;;;;;;;;;;;;;4986177;28;20437;-67
2022/05/16 12:08:04;;;;;;;;;;;;;;;;;;4988924;28;19925;-69
2022/05/16 12:10:30;;;;;;;;;;;;;;;;;;4988669;28;19917;-69
2022/05/16 12:12:56;;;;;;;;;;;;;;;;;;4987785;28;19952;-69
2022/05/16 12:15:22;;;;;;;;;;;;;;;;;;4958027;28;20011;-68
2022/05/16 12:17:48;;;;;;;;;;;;;;;;;;4988824;28;19940;-68
2022/05/16 12:20:14;;;;;;;;;;;;;;;;;;4994215;28;20473;-68
2022/05/16 12:22:42;;;;;;;;;;;;;;;;;;4998026;28;20014;-68
2022/05/16 12:25:08;;;;;;;;;;;;;;;;;;5003144;28;19992;-69
2022/05/16 12:27:35;;;;;;;;;;;;;;;;;;5002355;28;19925;-68
2022/05/16 12:30:02;;;;;;;;;;;;;;;;;;4999666;28;20369;-68
2022/05/16 12:32:28;;;;;;;;;;;;;;;;;;5005980;28;20434;-67
2022/05/16 12:34:54;;;;;;;;;;;;;;;;;;5003492;28;19948;-68
2022/05/16 12:37:20;;;;;;;;;;;;;;;;;;5006946;28;20039;-69
2022/05/16 12:39:46;;;;;;;;;;;;;;;;;;4991949;28;20349;-68
2022/05/16 12:42:11;;;;;;;;;;;;;;;;;;4993249;28;20011;-68
2022/05/16 12:44:40;;;;;;;;;;;;;;;;;;4991461;28;19922;-68
2022/05/16 12:47:06;;;;;;;;;;;;;;;;;;5007532;28;19917;-68
2022/05/16 12:49:33;;;;;;;;;;;;;;;;;;5005411;28;19936;-69
2022/05/16 12:51:59;;;;;;;;;;;;;;;;;;4954022;28;20442;-69
2022/05/16 12:54:25;;;;;;;;;;;;;;;;;;4952179;28;19931;-69
2022/05/16 12:56:51;;;;;;;;;;;;;;;;;;4952317;28;19917;-68
2022/05/16 12:59:17;;;;;;;;;;;;;;;;;;4958752;28;19921;-68
2022/05/16 13:01:44;;;;;;;;;;;;;;;;;;4967904;28;19948;-70
2022/05/16 13:04:09;;;;;;;;;;;;;;;;;;4958652;28;24806;-71
2022/05/16 13:06:36;;;;;;;;;;;;;;;;;;4961453;28;20430;-70
2022/05/16 13:09:02;;;;;;;;;;;;;;;;;;4957713;28;21053;-69
2022/05/16 13:11:27;;;;;;;;;;;;;;;;;;4964165;28;20275;-71
2022/05/16 13:13:57;;;;;;;;;;;;;;;;;;4960555;28;20920;-71
2022/05/16 13:16:23;;;;;;;;;;;;;;;;;;4959926;28;19956;-72
2022/05/16 13:18:52;;;;;;;;;;;;;;;;;;4951993;28;19960;-71
2022/05/16 13:21:18;;;;;;;;;;;;;;;;;;4954901;28;20028;-73
2022/05/16 13:23:44;;;;;;;;;;;;;;;;;;4964513;28;19935;-72
2022/05/16 13:31:39;;;;;;;;;;;;;;;;;;5006016;28;19979;-72
2022/05/16 13:34:08;;;;;;;;;;;;;;;;;;5007393;28;19920;-71
2022/05/16 13:36:34;;;;;;;;;;;;;;;;;;5008383;28;19913;-72
2022/05/16 13:39:00;;;;;;;;;;;;;;;;;;5007158;28;20014;-72
2022/05/16 13:41:26;;;;;;;;;;;;;;;;;;5004944;28;19927;-71
2022/05/16 13:43:55;;;;;;;;;;;;;;;;;;5005952;28;19924;-71
2022/05/16 13:46:21;;;;;;;;;;;;;;;;;;5010867;28;19924;-71
2022/05/16 13:48:47;;;;;;;;;;;;;;;;;;5020169;28;20192;-68
2022/05/16 13:51:13;;;;;;;;;;;;;;;;;;5004593;28;20292;-68
2022/05/16 13:53:39;;;;;;;;;;;;;;;;;;5005600;28;19964;-68
2022/05/16 13:56:05;;;;;;;;;;;;;;;;;;5004514;28;19917;-68
2022/05/16 13:58:32;;;;;;;;;;;;;;;;;;5004722;28;19921;-68
2022/05/16 14:00:58;;;;;;;;;;;;;;;;;;5003764;28;19917;-69
2022/05/16 14:03:24;;;;;;;;;;;;;;;;;;5007831;28;20368;-69
2022/05/16 14:05:53;;;;;;;;;;;;;;;;;;4992636;28;19924;-69
2022/05/16 14:08:20;;;;;;;;;;;;;;;;;;5005599;28;19917;-69
2022/05/16 14:10:46;;;;;;;;;;;;;;;;;;5008753;28;20075;-68
2022/05/16 14:13:12;;;;;;;;;;;;;;;;;;5000614;28;19917;-68
2022/05/16 14:15:38;;;;;;;;;;;;;;;;;;5005910;28;19921;-67
2022/05/16 14:18:04;;;;;;;;;;;;;;;;;;5001833;28;19943;-67
2022/05/16 14:20:30;;;;;;;;;;;;;;;;;;4994786;28;20327;-68
2022/05/16 14:22:56;;;;;;;;;;;;;;;;;;5004321;28;20432;-67
2022/05/16 14:25:21;;;;;;;;;;;;;;;;;;5009803;28;19917;-67
2022/05/16 14:27:47;;;;;;;;;;;;;;;;;;5008400;28;19924;-68
2022/05/16 14:30:13;;;;;;;;;;;;;;;;;;5006132;28;20351;-68
2022/05/16 14:32:39;;;;;;;;;;;;;;;;;;5005317;28;19923;-69
2022/05/16 14:35:05;;;;;;;;;;;;;;;;;;5004618;28;19914;-68
2022/05/16 14:37:33;;;;;;;;;;;;;;;;;;5002985;28;19960;-68
2022/05/16 14:39:59;;;;;;;;;;;;;;;;;;5004575;28;20408;-69
2022/05/16 14:42:25;;;;;;;;;;;;;;;;;;4991120;28;20044;-67
2022/05/16 14:44:51;;;;;;;;;;;;;;;;;;4993941;28;20371;-68
2022/05/16 14:47:23;;;;;;;;;;;;;;;;;;5006118;28;19971;-68
2022/05/16 14:49:49;;;;;;;;;;;;;;;;;;5004910;28;19929;-69
2022/05/16 14:52:15;;;;;;;;;;;;;;;;;;4992117;28;19924;-70
2022/05/16 14:54:41;;;;;;;;;;;;;;;;;;5005106;28;19921;-69
2022/05/16 14:57:07;;;;;;;;;;;;;;;;;;5003948;28;20083;-68
2022/05/16 14:59:33;;;;;;;;;;;;;;;;;;4996888;28;19921;-68
2022/05/16 15:04:44;;;;;;;;;;;;;;;;;;5007430;28;20080;-69
2022/05/16 15:07:10;;;;;;;;;;;;;;;;;;5003424;28;20497;-69
2022/05/16 15:09:36;;;;;;;;;;;;;;;;;;5003195;28;19963;-69
2022/05/16 15:12:02;;;;;;;;;;;;;;;;;;5002956;28;20004;-68
2022/05/16 15:14:28;;;;;;;;;;;;;;;;;;5002345;28;20367;-69
2022/05/16 15:16:55;;;;;;;;;;;;;;;;;;4995645;28;19932;-68
2022/05/16 15:19:22;;;;;;;;;;;;;;;;;;5004774;28;20025;-68
2022/05/16 15:21:48;;;;;;;;;;;;;;;;;;5006521;28;19953;-69
2022/05/16 15:24:14;;;;;;;;;;;;;;;;;;5003466;28;20154;-70
2022/05/16 15:26:40;;;;;;;;;;;;;;;;;;5003122;28;19913;-70
2022/05/16 15:29:06;;;;;;;;;;;;;;;;;;4999774;28;20058;-70
2022/05/16 15:31:32;;;;;;;;;;;;;;;;;;5002115;28;19918;-69
2022/05/16 15:33:58;;;;;;;;;;;;;;;;;;5001299;28;20600;-69
2022/05/16 15:36:25;;;;;;;;;;;;;;;;;;5000835;28;20298;-69
2022/05/16 15:38:51;;;;;;;;;;;;;;;;;;4983404;28;19983;-68
2022/05/16 15:44:03;;;;;;;;;;;;;;;;;;5007205;28;20605;-71
2022/05/16 15:46:29;;;;;;;;;;;;;;;;;;4999220;28;20427;-70
2022/05/16 15:48:55;;;;;;;;;;;;;;;;;;4999038;28;19929;-70
2022/05/16 15:51:21;;;;;;;;;;;;;;;;;;4998863;28;19960;-68
2022/05/16 15:53:47;;;;;;;;;;;;;;;;;;4994417;28;20395;-69
2022/05/16 15:56:15;;;;;;;;;;;;;;;;;;4983448;28;20419;-69
2022/05/16 15:58:41;;;;;;;;;;;;;;;;;;4981598;28;20344;-68
2022/05/16 16:01:07;;;;;;;;;;;;;;;;;;4980590;28;20348;-70
2022/05/16 16:09:03;;;;;;;;;;;;;;;;;;4979153;28;20350;-68
2022/05/16 16:11:29;;;;;;;;;;;;;;;;;;4993114;28;20134;-70
2022/05/16 16:13:56;;;;;;;;;;;;;;;;;;4984481;28;20455;-69
2022/05/16 16:16:22;;;;;;;;;;;;;;;;;;4981236;28;20368;-69
2022/05/16 16:18:48;;;;;;;;;;;;;;;;;;4989118;28;20043;-68
2022/05/16 16:21:14;;;;;;;;;;;;;;;;;;4983723;28;19917;-67
2022/05/16 16:23:40;;;;;;;;;;;;;;;;;;4992904;28;19917;-67
2022/05/16 16:26:06;;;;;;;;;;;;;;;;;;4989629;28;20407;-67
2022/05/16 16:28:33;;;;;;;;;;;;;;;;;;4986671;28;19917;-67
2022/05/16 16:31:00;;;;;;;;;;;;;;;;;;4988243;28;19995;-69
2022/05/16 16:33:26;;;;;;;;;;;;;;;;;;4985268;28;20332;-68
2022/05/16 16:35:54;;;;;;;;;;;;;;;;;;4985032;28;20025;-68
2022/05/16 16:38:20;;;;;;;;;;;;;;;;;;4988578;28;19927;-68
2022/05/16 16:40:46;;;;;;;;;;;;;;;;;;5004385;28;19921;-68
2022/05/16 16:43:12;;;;;;;;;;;;;;;;;;4999433;28;20481;-65
2022/05/16 16:45:38;;;;;;;;;;;;;;;;;;4984147;28;19918;-71
2022/05/16 16:48:04;;;;;;;;;;;;;;;;;;4989651;28;19936;-70
2022/05/16 16:50:30;;;;;;;;;;;;;;;;;;4984584;28;20011;-71
2022/05/16 16:58:25;;;;;;;;;;;;;;;;;;4998967;28;19928;-70
2022/05/16 17:00:51;;;;;;;;;;;;;;;;;;4997877;28;19927;-71
2022/05/16 17:03:17;;;;;;;;;;;;;;;;;;5011005;28;20170;-70
2022/05/16 17:05:44;;;;;;;;;;;;;;;;;;4998440;28;20378;-70
2022/05/16 17:08:10;;;;;;;;;;;;;;;;;;4984961;28;21573;-70
2022/05/16 17:10:37;;;;;;;;;;;;;;;;;;5006663;28;20399;-71
2022/05/16 17:13:04;;;;;;;;;;;;;;;;;;5005342;28;20414;-70
2022/05/16 17:15:30;;;;;;;;;;;;;;;;;;5001850;28;19913;-69
2022/05/16 17:17:56;;;;;;;;;;;;;;;;;;5000154;28;19917;-68
2022/05/16 17:20:22;;;;;;;;;;;;;;;;;;5000138;28;19921;-69
2022/05/16 17:22:48;;;;;;;;;;;;;;;;;;4995690;28;19921;-68
2022/05/16 17:25:14;;;;;;;;;;;;;;;;;;5000511;28;19917;-69
2022/05/16 17:27:40;;;;;;;;;;;;;;;;;;4994925;28;20028;-69
2022/05/16 17:30:07;;;;;;;;;;;;;;;;;;4997303;28;19967;-69
2022/05/16 17:32:33;;;;;;;;;;;;;;;;;;5001777;28;19925;-69
2022/05/16 17:34:59;;;;;;;;;;;;;;;;;;5000168;28;20085;-69
2022/05/16 17:37:25;;;;;;;;;;;;;;;;;;4998754;28;20360;-66